Time;durP1;ratioP1;P1;durP2;ratioP2;P2;SDS_P1;SDS_P2;PMS_P1;PMS_P2;Temp;Humidity;BMP_temperature;BMP_pressure;BME280_temperature;BME280_humidity;BME280_pressure;Samples;Min_cycle;Max_cycle;Signal;HPM_P1;HPM_P2
2022/04/01 00:02:17;;;;;;;1.95;1.20;;;14.30;99.90;;;;;;5073287;28;20033;-51
2022/04/01 00:04:43;;;;;;;2.70;1.00;;;14.20;99.90;;;;;;5073563;28;20043;-51
2022/04/01 00:07:08;;;;;;;2.78;1.30;;;14.20;99.90;;;;;;5072010;28;20068;-51
2022/04/01 00:09:34;;;;;;;2.38;1.00;;;14.30;99.90;;;;;;5073626;28;20504;-50
2022/04/01 00:12:00;;;;;;;2.72;1.20;;;14.40;99.90;;;;;;5038060;28;20036;-51
2022/04/01 00:14:26;;;;;;;3.38;1.10;;;14.30;99.90;;;;;;5072980;28;20480;-51
2022/04/01 00:16:52;;;;;;;2.67;1.50;;;14.40;99.90;;;;;;5088413;28;20033;-50
2022/04/01 00:19:20;;;;;;;3.30;1.17;;;14.40;99.90;;;;;;5073463;28;20035;-50
2022/04/01 00:21:46;;;;;;;6.07;1.25;;;14.50;99.90;;;;;;5072979;28;20048;-50
2022/04/01 00:24:13;;;;;;;2.83;1.08;;;;;;;;;;5073078;28;20046;-51
2022/04/01 00:26:38;;;;;;;3.80;1.15;;;14.50;99.90;;;;;;5073053;28;20023;-51
2022/04/01 00:29:14;;;;;;;3.08;1.38;;;14.40;99.90;;;;;;5073554;28;20111;-51
2022/04/01 00:31:58;;;;;;;2.92;1.60;;;14.30;99.90;;;;;;5070797;28;20032;-50
2022/04/01 00:34:28;;;;;;;1.65;1.00;;;14.30;99.90;;;;;;5070874;28;20115;-50
2022/04/01 00:36:56;;;;;;;3.78;1.35;;;14.30;99.90;;;;;;5070727;28;20500;-52
2022/04/01 00:39:23;;;;;;;1.83;1.00;;;14.30;99.90;;;;;;5070933;28;20024;-51
2022/04/01 00:41:49;;;;;;;1.67;1.00;;;14.30;99.90;;;;;;5037407;28;20045;-50
2022/04/01 00:44:19;;;;;;;1.48;0.77;;;14.30;99.90;;;;;;5070842;28;20074;-50
2022/04/01 00:46:48;;;;;;;1.65;1.02;;;14.30;99.90;;;;;;5037485;28;20025;-50
2022/04/01 00:49:14;;;;;;;3.45;1.13;;;14.20;99.90;;;;;;5070711;28;20036;-51
2022/04/01 00:51:44;;;;;;;5.15;1.48;;;14.10;99.90;;;;;;5070783;28;20068;-50
2022/04/01 00:54:11;;;;;;;1.67;0.68;;;14.20;99.90;;;;;;5070923;28;20032;-50
2022/04/01 00:56:38;;;;;;;3.75;1.13;;;14.00;99.90;;;;;;5070678;28;20044;-50
2022/04/01 00:59:05;;;;;;;1.63;0.90;;;14.00;99.90;;;;;;5070617;28;20507;-51
2022/04/01 01:01:33;;;;;;;3.80;1.45;;;14.10;99.90;;;;;;5053783;28;20504;-51
2022/04/01 01:04:04;;;;;;;2.30;0.95;;;14.10;99.90;;;;;;5072714;28;20146;-50
2022/04/01 01:06:37;;;;;;;2.15;0.98;;;14.10;99.90;;;;;;5072798;28;20035;-50
2022/04/01 01:09:04;;;;;;;2.40;1.02;;;14.10;99.90;;;;;;5072706;28;20380;-51
2022/04/01 01:11:35;;;;;;;2.95;1.23;;;14.00;99.90;;;;;;5072734;28;20059;-50
2022/04/01 01:14:02;;;;;;;37.85;15.55;;;14.20;99.90;;;;;;5072568;28;20040;-50
2022/04/01 01:16:28;;;;;;;55.90;24.45;;;14.30;99.90;;;;;;5072741;28;20020;-51
2022/04/01 01:19:07;;;;;;;25.60;10.60;;;14.30;99.90;;;;;;5072668;28;20040;-51
2022/04/01 01:21:33;;;;;;;17.25;8.15;;;14.40;99.90;;;;;;5072429;28;20505;-51
2022/04/01 01:24:03;;;;;;;17.02;8.95;;;14.40;99.90;;;;;;5070761;28;20479;-51
2022/04/01 01:26:30;;;;;;;21.13;9.75;;;14.40;99.90;;;;;;5073609;28;20028;-51
2022/04/01 01:28:57;;;;;;;19.13;8.88;;;14.50;99.90;;;;;;5076176;28;20033;-50
2022/04/01 01:31:24;;;;;;;7.20;3.20;;;14.50;99.90;;;;;;5076112;28;20044;-50
2022/04/01 01:33:50;;;;;;;6.13;2.75;;;14.50;99.90;;;;;;5076178;28;20028;-51
2022/04/01 01:36:16;;;;;;;4.70;1.88;;;14.30;99.90;;;;;;5075921;28;20495;-52
2022/04/01 01:38:42;;;;;;;3.58;1.67;;;14.10;99.90;;;;;;5091093;28;20036;-50
2022/04/01 01:41:08;;;;;;;2.78;1.50;;;13.90;99.90;;;;;;5075810;28;20524;-50
2022/04/01 01:43:34;;;;;;;3.63;2.00;;;13.80;99.90;;;;;;5091003;28;20037;-50
2022/04/01 01:46:00;;;;;;;1.40;0.93;;;13.90;99.90;;;;;;5090846;28;20032;-51
2022/04/01 01:48:26;;;;;;;1.73;0.65;;;13.60;99.90;;;;;;5075817;28;20357;-51
2022/04/01 01:56:20;;;;;;;1.63;0.55;;;13.70;99.90;;;;;;5075418;28;20035;-50
2022/04/01 01:58:46;;;;;;;5.28;0.73;;;13.70;99.90;;;;;;5090806;28;20144;-50
2022/04/01 02:01:12;;;;;;;1.85;0.90;;;13.70;99.90;;;;;;5075747;28;20117;-50
2022/04/01 02:03:38;;;;;;;1.45;0.73;;;13.70;99.90;;;;;;5075556;28;20022;-51
2022/04/01 02:06:04;;;;;;;1.55;0.77;;;13.70;99.90;;;;;;5075325;28;20028;-51
2022/04/01 02:08:30;;;;;;;4.07;0.80;;;13.70;99.90;;;;;;5040482;28;20036;-50
2022/04/01 02:10:56;;;;;;;2.92;1.00;;;13.70;99.90;;;;;;5075408;28;20048;-50
2022/04/01 02:13:23;;;;;;;5.00;2.00;;;13.70;99.90;;;;;;5075233;28;20104;-51
2022/04/01 02:15:50;;;;;;;5.70;1.02;;;13.70;99.90;;;;;;5075334;28;20029;-50
2022/04/01 02:18:16;;;;;;;4.68;1.30;;;13.70;99.90;;;;;;5075380;28;20036;-49
2022/04/01 02:20:42;;;;;;;3.00;0.90;;;13.70;99.90;;;;;;5075134;28;20098;-51
2022/04/01 02:23:09;;;;;;;1.48;0.77;;;13.70;99.90;;;;;;5075014;28;20049;-50
2022/04/01 02:25:36;;;;;;;2.10;0.88;;;13.70;99.90;;;;;;5075294;28;20056;-50
2022/04/01 02:28:02;;;;;;;2.38;1.02;;;13.70;99.90;;;;;;5082076;28;20115;-50
2022/04/01 02:30:28;;;;;;;4.15;1.70;;;13.80;99.90;;;;;;5095189;28;20404;-50
2022/04/01 02:32:54;;;;;;;6.35;1.67;;;13.70;99.90;;;;;;5095362;28;20031;-50
2022/04/01 02:35:20;;;;;;;5.10;1.65;;;13.70;99.90;;;;;;5095096;28;20024;-51
2022/04/01 02:37:47;;;;;;;6.28;1.13;;;13.70;99.90;;;;;;5110040;28;20047;-50
2022/04/01 02:40:13;;;;;;;3.35;1.08;;;13.70;99.90;;;;;;5094994;28;20028;-51
2022/04/01 02:42:39;;;;;;;2.88;1.33;;;13.70;99.90;;;;;;5110321;28;20441;-50
2022/04/01 02:45:05;;;;;;;6.82;1.88;;;13.70;99.90;;;;;;5092704;28;20073;-50
2022/04/01 02:47:31;;;;;;;7.85;1.83;;;13.80;99.90;;;;;;5092804;28;20480;-50
2022/04/01 02:49:57;;;;;;;3.72;1.20;;;13.80;99.90;;;;;;5026012;28;20036;-50
2022/04/01 02:52:23;;;;;;;5.78;1.30;;;13.80;99.90;;;;;;5092714;28;20583;-51
2022/04/01 02:54:49;;;;;;;3.78;1.35;;;13.80;99.90;;;;;;5092521;28;20058;-50
2022/04/01 02:57:15;;;;;;;5.90;1.38;;;13.70;99.90;;;;;;5092535;28;20036;-52
2022/04/01 02:59:40;;;;;;;1.70;0.90;;;13.70;99.90;;;;;;5092719;28;20032;-50
2022/04/01 03:02:06;;;;;;;5.28;1.58;;;13.70;99.90;;;;;;5059136;28;20400;-50
2022/04/01 03:04:32;;;;;;;2.40;1.05;;;13.60;99.90;;;;;;5092263;28;20066;-50
2022/04/01 03:06:58;;;;;;;2.20;0.88;;;13.60;99.90;;;;;;5092391;28;20069;-51
2022/04/01 03:09:23;;;;;;;1.55;0.80;;;13.50;99.90;;;;;;5092320;28;20032;-51
2022/04/01 03:11:49;;;;;;;2.70;1.02;;;13.60;99.90;;;;;;5092363;28;20044;-50
2022/04/01 03:14:16;;;;;;;2.83;1.20;;;13.50;99.90;;;;;;5092297;28;20024;-50
2022/04/01 03:16:43;;;;;;;6.40;1.33;;;13.50;99.90;;;;;;5093821;28;20055;-50
2022/04/01 03:19:10;;;;;;;3.95;0.95;;;13.50;99.90;;;;;;5094380;28;20076;-50
2022/04/01 03:21:38;;;;;;;5.97;1.58;;;13.40;99.90;;;;;;5094043;28;20043;-50
2022/04/01 03:24:04;;;;;;;3.28;1.27;;;13.40;99.90;;;;;;5094205;28;20038;-50
2022/04/01 03:26:30;;;;;;;2.67;1.73;;;13.50;99.90;;;;;;5092181;28;20528;-51
2022/04/01 03:28:55;;;;;;;4.13;1.58;;;13.50;99.90;;;;;;5109458;28;20036;-50
2022/04/01 03:31:21;;;;;;;9.73;2.95;;;13.50;99.90;;;;;;5109482;28;20146;-50
2022/04/01 03:33:47;;;;;;;3.67;1.27;;;13.50;99.90;;;;;;5092378;28;20484;-51
2022/04/01 03:36:13;;;;;;;6.57;1.50;;;13.50;99.90;;;;;;5094134;28;20024;-50
2022/04/01 03:38:40;;;;;;;6.43;1.70;;;13.60;99.90;;;;;;5092082;28;20047;-50
2022/04/01 03:41:07;;;;;;;6.28;2.60;;;13.50;99.90;;;;;;5093851;28;20111;-50
2022/04/01 03:43:34;;;;;;;6.57;1.67;;;13.60;99.90;;;;;;5093795;28;20107;-50
2022/04/01 03:46:08;;;;;;;4.63;1.77;;;13.60;99.90;;;;;;5093966;28;20068;-50
2022/04/01 03:48:47;;;;;;;3.78;1.30;;;13.60;99.90;;;;;;5093444;28;20031;-51
2022/04/01 03:51:19;;;;;;;1.55;0.68;;;13.60;99.90;;;;;;5093774;28;20069;-50
2022/04/01 03:54:01;;;;;;;2.95;0.77;;;13.60;99.90;;;;;;5093828;28;20059;-51
2022/04/01 03:56:34;;;;;;;;;;;13.70;99.90;;;;;;5094072;28;20039;-50
2022/04/01 03:59:03;;;;;;;2.92;0.85;;;13.90;99.90;;;;;;5108862;28;19914;-50
2022/04/01 04:01:29;;;;;;;1.88;0.43;;;14.00;99.90;;;;;;5069565;28;20074;-50
2022/04/01 04:03:56;;;;;;;3.05;1.15;;;14.00;99.90;;;;;;5068463;28;20037;-49
2022/04/01 04:06:25;;;;;;;1.85;0.55;;;14.10;99.90;;;;;;5053696;28;20108;-51
2022/04/01 04:08:56;;;;;;;1.30;0.50;;;14.20;99.90;;;;;;5068289;28;20116;-52
2022/04/01 04:11:31;;;;;;;1.65;1.48;;;14.20;99.90;;;;;;5055564;28;20124;-50
2022/04/01 04:13:58;;;;;;;1.48;0.65;;;14.40;99.90;;;;;;5056184;28;20082;-50
2022/04/01 04:16:46;;;;;;;3.00;1.38;;;14.30;99.90;;;;;;5064241;28;20132;-50
2022/04/01 04:19:14;;;;;;;1.52;0.95;;;14.30;99.90;;;;;;5073102;28;20017;-49
2022/04/01 04:21:43;;;;;;;1.65;0.95;;;14.40;99.90;;;;;;5087876;28;20484;-50
2022/04/01 04:24:18;;;;;;;7.53;1.77;;;14.40;99.90;;;;;;5073375;28;20029;-49
2022/04/01 04:26:49;;;;;;;2.10;0.75;;;14.40;99.90;;;;;;5054057;28;20040;-51
2022/04/01 04:29:16;;;;;;;5.82;1.10;;;14.50;99.90;;;;;;5059363;28;20041;-51
2022/04/01 04:32:03;;;;;;;2.30;0.70;;;14.40;99.90;;;;;;5070615;28;20033;-51
2022/04/01 04:34:43;;;;;;;2.92;0.68;;;14.30;99.90;;;;;;5035898;28;20041;-50
2022/04/01 04:37:14;;;;;;;1.40;0.80;;;14.30;99.90;;;;;;5070684;28;20400;-50
2022/04/01 04:39:40;;;;;;;3.58;0.93;;;14.20;99.90;;;;;;5036644;28;20049;-50
2022/04/01 04:42:09;;;;;;;6.05;1.48;;;14.20;99.90;;;;;;5037712;28;20108;-49
2022/04/01 04:44:35;;;;;;;3.67;1.02;;;14.20;99.90;;;;;;5069798;28;20542;-51
2022/04/01 04:47:04;;;;;;;2.40;0.70;;;14.20;99.90;;;;;;5070708;28;20029;-50
2022/04/01 04:49:30;;;;;;;0.82;0.30;;;14.10;99.90;;;;;;5054120;28;20079;-53
2022/04/01 04:51:57;;;;;;;3.95;1.23;;;14.10;99.90;;;;;;5070642;28;20067;-52
2022/04/01 04:54:24;;;;;;;1.65;1.13;;;14.10;99.90;;;;;;5070752;28;20511;-51
2022/04/01 04:56:52;;;;;;;1.65;0.85;;;14.10;99.90;;;;;;5070882;28;20036;-50
2022/04/01 04:59:19;;;;;;;3.65;1.38;;;14.10;99.90;;;;;;5072703;28;20025;-50
2022/04/01 05:02:06;;;;;;;2.33;0.93;;;14.00;99.90;;;;;;5074451;28;20058;-50
2022/04/01 05:05:03;;;;;;;3.88;1.60;;;13.90;99.90;;;;;;5060760;28;20037;-50
2022/04/01 05:07:47;;;;;;;2.28;1.13;;;13.90;99.90;;;;;;5034591;28;20496;-50
2022/04/01 05:10:16;;;;;;;2.88;1.17;;;13.90;99.90;;;;;;5034598;28;20053;-50
2022/04/01 05:13:09;;;;;;;1.88;0.60;;;13.90;99.90;;;;;;5034508;28;20519;-51
2022/04/01 05:15:39;;;;;;;3.97;0.88;;;14.10;99.90;;;;;;5034614;28;20043;-50
2022/04/01 05:18:12;;;;;;;1.33;1.00;;;14.10;99.90;;;;;;5034441;28;20049;-50
2022/04/01 05:21:00;;;;;;;2.92;1.65;;;14.00;99.90;;;;;;5017840;28;20026;-51
2022/04/01 05:23:46;;;;;;;2.30;1.52;;;14.00;99.90;;;;;;5001305;28;20046;-51
2022/04/01 05:26:14;;;;;;;3.00;1.67;;;14.00;99.90;;;;;;5034116;28;20063;-50
2022/04/01 05:28:46;;;;;;;2.78;1.85;;;14.00;99.90;;;;;;5034113;28;20037;-50
2022/04/01 05:31:30;;;;;;;;;;;14.10;99.90;;;;;;5034650;28;20410;-51
2022/04/01 05:34:08;;;;;;;2.15;0.60;;;14.20;99.90;;;;;;5034236;28;19904;-51
2022/04/01 05:36:34;;;;;;;2.47;1.23;;;14.20;99.90;;;;;;5034406;28;20038;-50
2022/04/01 05:39:00;;;;;;;3.33;1.20;;;14.30;99.90;;;;;;5034009;28;20103;-52
2022/04/01 05:41:28;;;;;;;7.63;1.85;;;14.30;99.90;;;;;;5033926;28;20025;-52
2022/04/01 05:43:57;;;;;;;4.75;1.10;;;14.40;99.90;;;;;;5041011;28;20045;-51
2022/04/01 05:46:25;;;;;;;2.38;0.80;;;14.50;99.90;;;;;;5056009;28;20432;-51
2022/04/01 05:48:53;;;;;;;2.70;1.02;;;14.70;99.90;;;;;;5070876;28;20044;-51
2022/04/01 05:51:19;;;;;;;3.60;1.08;;;14.90;99.90;;;;;;5055774;28;20086;-51
2022/04/01 05:53:46;;;;;;;2.30;0.73;;;15.00;99.90;;;;;;5055782;28;20021;-51
2022/04/01 05:56:14;;;;;;;1.20;0.90;;;15.10;99.90;;;;;;5055567;28;20385;-51
2022/04/01 05:58:42;;;;;;;5.22;0.98;;;15.40;99.90;;;;;;5056098;28;20041;-51
2022/04/01 06:01:22;;;;;;;2.28;1.20;;;15.40;99.90;;;;;;5055206;28;20075;-52
2022/04/01 06:04:16;;;;;;;3.33;1.40;;;15.50;99.90;;;;;;5055493;28;20020;-51
2022/04/01 06:06:44;;;;;;;5.05;1.95;;;15.60;99.90;;;;;;5055823;28;20021;-52
2022/04/01 06:09:26;;;;;;;5.65;1.50;;;15.70;99.90;;;;;;5055395;28;20025;-52
2022/04/01 06:12:02;;;;;;;4.03;1.20;;;15.70;99.90;;;;;;5054998;28;20029;-51
2022/04/01 06:14:49;;;;;;;2.67;1.50;;;15.60;99.90;;;;;;5058211;28;20590;-52
2022/04/01 06:17:42;;;;;;;5.28;2.08;;;15.80;99.90;;;;;;5064439;28;20062;-52
2022/04/01 06:20:08;;;;;;;6.70;1.83;;;;;;;;;;5070054;28;20068;-51
2022/04/01 06:22:49;;;;;;;3.50;1.20;;;16.00;99.90;;;;;;5056086;28;20131;-51
2022/04/01 06:25:20;;;;;;;4.32;1.83;;;16.00;99.90;;;;;;5065157;28;20040;-52
2022/04/01 06:27:48;;;;;;;3.35;1.50;;;16.00;99.90;;;;;;5063729;28;20033;-51
2022/04/01 06:30:21;;;;;;;10.07;2.35;;;16.00;99.90;;;;;;5064035;28;20385;-51
2022/04/01 06:33:03;;;;;;;5.78;2.22;;;16.10;99.90;;;;;;5064229;28;20028;-52
2022/04/01 06:35:35;;;;;;;4.90;1.70;;;16.20;99.90;;;;;;5059679;28;20902;-53
2022/04/01 06:38:08;;;;;;;31.23;16.80;;;16.30;99.90;;;;;;5072054;28;20048;-52
2022/04/01 06:40:42;;;;;;;11.55;5.53;;;;;;;;;;5070251;28;20059;-52
2022/04/01 06:43:08;;;;;;;10.25;4.60;;;16.80;99.90;;;;;;5062480;28;20047;-55
2022/04/01 06:45:34;;;;;;;8.48;3.13;;;17.00;99.90;;;;;;5061237;28;20040;-41
2022/04/01 06:47:59;;;;;;;8.93;3.78;;;17.30;99.90;;;;;;5066321;28;20068;-48
2022/04/01 06:50:25;;;;;;;4.38;1.40;;;17.50;99.90;;;;;;5063739;28;20091;-52
2022/04/01 06:52:51;;;;;;;0.85;0.70;;;17.70;99.90;;;;;;5065168;28;20476;-56
2022/04/01 06:55:17;;;;;;;2.83;1.10;;;17.70;99.90;;;;;;5063353;28;20025;-50
2022/04/01 06:57:43;;;;;;;1.42;0.70;;;17.60;99.90;;;;;;5074296;28;20043;-50
2022/04/01 07:00:13;;;;;;;3.95;0.75;;;17.60;99.90;;;;;;5074412;28;20066;-45
2022/04/01 07:02:42;;;;;;;4.47;1.15;;;17.70;99.90;;;;;;5055897;28;20036;-51
2022/04/01 07:05:11;;;;;;;4.40;1.15;;;17.70;99.90;;;;;;5075019;28;20110;-50
2022/04/01 07:07:42;;;;;;;2.15;1.02;;;17.80;99.90;;;;;;5074351;28;20028;-51
2022/04/01 07:10:10;;;;;;;4.63;1.38;;;17.80;99.90;;;;;;5074254;28;20094;-55
2022/04/01 07:12:37;;;;;;;3.38;1.08;;;18.00;99.90;;;;;;5063623;28;20396;-52
2022/04/01 07:15:04;;;;;;;2.05;1.27;;;18.20;99.90;;;;;;5063338;28;20451;-50
2022/04/01 07:17:30;;;;;;;3.72;1.30;;;18.30;99.90;;;;;;5060995;28;20033;-49
2022/04/01 07:19:56;;;;;;;3.97;1.65;;;;;;;;;;5071202;28;20035;-49
2022/04/01 07:22:21;;;;;;;4.70;1.42;;;18.50;99.90;;;;;;5071027;28;20139;-50
2022/04/01 07:24:47;;;;;;;3.78;1.15;;;18.70;99.90;;;;;;5066500;28;20108;-49
2022/04/01 07:27:14;;;;;;;6.18;1.60;;;18.70;99.90;;;;;;5072223;28;20051;-46
2022/04/01 07:29:40;;;;;;;3.80;1.33;;;18.70;99.90;;;;;;5064010;28;20025;-49
2022/04/01 07:34:52;;;;;;;3.30;1.50;;;18.90;99.90;;;;;;5063267;28;20035;-49
2022/04/01 07:37:23;;;;;;;7.60;1.52;;;18.80;99.90;;;;;;5089553;28;20044;-49
2022/04/01 07:39:51;;;;;;;3.30;1.55;;;19.00;99.90;;;;;;5071272;28;20086;-49
2022/04/01 07:42:18;;;;;;;5.15;1.92;;;19.10;99.90;;;;;;5060446;28;20563;-49
2022/04/01 07:44:44;;;;;;;8.70;2.58;;;19.40;99.90;;;;;;5065274;28;20035;-49
2022/04/01 07:47:11;;;;;;;19.45;4.53;;;;;;;;;;5068498;28;20083;-47
2022/04/01 07:49:37;;;;;;;10.43;2.67;;;;;;;;;;5065474;28;20029;-46
2022/04/01 07:52:07;;;;;;;9.70;4.65;;;20.30;99.90;;;;;;5061856;28;20029;-46
2022/04/01 07:54:34;;;;;;;14.38;6.90;;;20.90;99.90;;;;;;5070651;28;20033;-50
2022/04/01 07:57:00;;;;;;;2.35;0.70;;;21.40;99.90;;;;;;5062631;28;20507;-50
2022/04/01 07:59:26;;;;;;;4.57;0.85;;;21.10;99.90;;;;;;5066112;28;20024;-50
2022/04/01 08:01:52;;;;;;;2.45;0.85;;;21.00;99.90;;;;;;5070046;28;20132;-48
2022/04/01 08:04:19;;;;;;;4.47;1.80;;;20.60;99.90;;;;;;5049885;28;20154;-50
2022/04/01 08:06:44;;;;;;;3.90;1.23;;;20.50;99.90;;;;;;5063680;28;20465;-51
2022/04/01 08:09:10;;;;;;;5.68;2.22;;;20.30;99.90;;;;;;5066632;28;20130;-51
2022/04/01 08:11:36;;;;;;;4.60;1.25;;;20.30;99.90;;;;;;5068798;28;20031;-51
2022/04/01 08:14:03;;;;;;;5.65;2.50;;;20.30;99.90;;;;;;5065945;28;20024;-50
2022/04/01 08:16:29;;;;;;;2.15;1.25;;;20.00;99.90;;;;;;5058577;28;20028;-53
2022/04/01 08:18:55;;;;;;;7.22;2.70;;;18.90;99.90;;;;;;5070496;28;20479;-49
2022/04/01 08:21:20;;;;;;;4.13;3.20;;;18.00;99.90;;;;;;5066207;28;20027;-48
2022/04/01 08:23:46;;;;;;;4.68;2.33;;;17.60;99.90;;;;;;5064957;28;20028;-47
2022/04/01 08:26:12;;;;;;;3.90;2.58;;;17.30;99.90;;;;;;5069476;28;20522;-48
2022/04/01 08:28:39;;;;;;;4.28;2.80;;;17.30;99.90;;;;;;5061933;28;20044;-47
2022/04/01 08:31:07;;;;;;;17.13;13.10;;;17.30;99.90;;;;;;5064893;28;20033;-46
2022/04/01 08:33:33;;;;;;;31.02;19.23;;;17.20;99.90;;;;;;5066025;28;20044;-49
2022/04/01 08:35:59;;;;;;;11.25;7.72;;;17.20;99.90;;;;;;5057021;28;20025;-49
2022/04/01 08:38:25;;;;;;;158.70;84.63;;;17.10;99.90;;;;;;5070587;28;20036;-50
2022/04/01 08:40:50;;;;;;;125.32;54.53;;;17.00;99.90;;;;;;5072982;28;20033;-47
2022/04/01 08:43:26;;;;;;;91.70;38.40;;;17.00;99.90;;;;;;5068182;28;20395;-47
2022/04/01 08:45:53;;;;;;;116.75;72.40;;;17.00;99.90;;;;;;5068835;28;20503;-47
2022/04/01 08:48:19;;;;;;;42.08;26.52;;;17.10;99.90;;;;;;5059899;28;20029;-47
2022/04/01 08:50:45;;;;;;;65.97;51.10;;;17.20;99.90;;;;;;5063481;28;20039;-47
2022/04/01 08:53:11;;;;;;;81.80;56.42;;;17.40;99.90;;;;;;5061114;28;20063;-47
2022/04/01 08:55:37;;;;;;;10.43;8.60;;;17.50;99.90;;;;;;5046548;28;20036;-47
2022/04/01 08:58:03;;;;;;;7.40;6.70;;;17.60;99.90;;;;;;5071814;28;20048;-47
2022/04/01 09:00:29;;;;;;;5.30;2.83;;;17.70;99.90;;;;;;5071577;28;20040;-46
2022/04/01 09:03:02;;;;;;;4.53;2.17;;;17.80;99.90;;;;;;5072421;28;20055;-46
2022/04/01 09:05:29;;;;;;;2.80;1.30;;;17.90;99.90;;;;;;5071090;28;20039;-46
2022/04/01 09:08:01;;;;;;;2.97;1.67;;;18.10;99.90;;;;;;5055490;28;20127;-46
2022/04/01 09:10:27;;;;;;;3.22;1.88;;;18.40;99.90;;;;;;5064486;28;20044;-46
2022/04/01 09:12:53;;;;;;;0.98;0.80;;;18.80;99.90;;;;;;5068027;28;20074;-48
2022/04/01 09:15:19;;;;;;;4.78;2.40;;;19.40;99.90;;;;;;5069410;28;20518;-49
2022/04/01 09:17:50;;;;;;;3.80;1.75;;;20.00;99.90;;;;;;5069535;28;20044;-48
2022/04/01 09:20:17;;;;;;;3.05;1.80;;;;;;;;;;5068485;28;20608;-47
2022/04/01 09:22:44;;;;;;;2.63;1.30;;;20.00;99.90;;;;;;5071063;28;20508;-47
2022/04/01 09:25:11;;;;;;;7.13;3.85;;;;;;;;;;5066034;28;20040;-46
2022/04/01 09:27:37;;;;;;;8.50;5.72;;;;;;;;;;5069402;28;20036;-46
2022/04/01 09:30:03;;;;;;;7.50;2.92;;;;;;;;;;5065451;28;20539;-46
2022/04/01 09:32:36;;;;;;;2.95;1.83;;;;;;;;;;5052369;28;20503;-47
2022/04/01 09:35:02;;;;;;;13.60;7.45;;;;;;;;;;5065893;28;20036;-45
2022/04/01 09:37:41;;;;;;;8.38;3.58;;;;;;;;;;5073315;28;20102;-46
2022/04/01 09:40:08;;;;;;;17.15;9.98;;;;;;;;;;5074750;28;20029;-45
2022/04/01 09:42:34;;;;;;;5.80;2.28;;;;;;;;;;5071891;28;20075;-44
2022/04/01 09:45:00;;;;;;;6.28;3.35;;;22.10;99.90;;;;;;5068803;28;20449;-43
2022/04/01 09:47:26;;;;;;;3.53;1.58;;;22.30;99.90;;;;;;5064520;28;20067;-44
2022/04/01 09:49:54;;;;;;;5.05;2.17;;;22.40;98.70;;;;;;5082623;28;20052;-44
2022/04/01 09:52:25;;;;;;;3.40;0.75;;;22.90;97.50;;;;;;5054948;28;20518;-44
2022/04/01 09:54:53;;;;;;;3.65;1.65;;;23.00;99.90;;;;;;5046422;28;20040;-44
2022/04/01 09:57:21;;;;;;;2.00;0.90;;;23.30;99.90;;;;;;5045434;28;20092;-44
2022/04/01 09:59:49;;;;;;;1.63;0.60;;;23.00;96.10;;;;;;5056996;28;20041;-47
2022/04/01 10:02:15;;;;;;;5.53;4.05;;;23.30;94.20;;;;;;5057900;28;20116;-44
2022/04/01 10:04:41;;;;;;;2.08;0.90;;;23.40;95.00;;;;;;5056464;28;20181;-44
2022/04/01 10:07:08;;;;;;;0.55;0.43;;;23.30;93.70;;;;;;5063151;28;20087;-44
2022/04/01 10:09:36;;;;;;;2.25;1.00;;;21.90;92.70;;;;;;5054178;28;20082;-44
2022/04/01 10:12:06;;;;;;;2.17;1.30;;;21.80;92.60;;;;;;5057476;28;20531;-45
2022/04/01 10:14:34;;;;;;;15.20;10.90;;;21.40;93.20;;;;;;4999263;28;20040;-44
2022/04/01 10:17:01;;;;;;;2.60;0.90;;;21.20;93.90;;;;;;5057135;28;20045;-46
2022/04/01 10:19:32;;;;;;;1.63;0.50;;;21.10;93.90;;;;;;5059046;28;20033;-45
2022/04/01 10:21:59;;;;;;;1.33;0.70;;;20.80;93.60;;;;;;5068143;28;20071;-45
2022/04/01 10:24:43;;;;;;;7.13;1.27;;;20.70;94.50;;;;;;5069021;28;20492;-44
2022/04/01 10:27:23;;;;;;;4.43;2.17;;;20.90;94.70;;;;;;5066667;28;20032;-45
2022/04/01 10:29:49;;;;;;;18.52;9.40;;;21.20;94.80;;;;;;5065572;28;20153;-48
2022/04/01 10:32:24;;;;;;;2.72;1.92;;;21.40;95.00;;;;;;5065037;28;20025;-46
2022/04/01 10:34:53;;;;;;;1.52;0.75;;;21.80;94.30;;;;;;5067788;28;20086;-46
2022/04/01 10:37:22;;;;;;;1.92;0.90;;;22.00;94.20;;;;;;5070820;28;20526;-47
2022/04/01 10:40:00;;;;;;;0.73;0.57;;;22.20;93.70;;;;;;5067698;28;20040;-47
2022/04/01 10:42:50;;;;;;;0.63;0.32;;;22.10;93.00;;;;;;5066220;28;20020;-47
2022/04/01 10:45:16;;;;;;;0.88;0.60;;;22.10;92.50;;;;;;5065994;28;20388;-47
2022/04/01 10:53:46;;;;;;;0.88;0.50;;;22.00;91.50;;;;;;5065282;28;20051;-46
2022/04/01 10:56:23;;;;;;;2.67;0.70;;;22.00;92.10;;;;;;5059360;28;20034;-46
2022/04/01 10:59:07;;;;;;;1.00;0.60;;;21.90;90.80;;;;;;5085362;28;20049;-46
2022/04/01 11:01:39;;;;;;;0.75;0.57;;;21.70;91.60;;;;;;5059033;28;20070;-46
2022/04/01 11:04:17;;;;;;;4.35;1.23;;;21.70;91.30;;;;;;5067206;28;20046;-46
2022/04/01 11:07:27;;;;;;;2.95;1.40;;;21.70;91.80;;;;;;5063588;28;20040;-47
2022/04/01 11:09:54;;;;;;;2.95;0.88;;;21.60;91.40;;;;;;5049224;28;20045;-46
2022/04/01 11:12:23;;;;;;;1.85;0.40;;;21.40;90.80;;;;;;5049350;28;20025;-47
2022/04/01 11:17:35;;;;;;;5.30;1.00;;;20.90;91.40;;;;;;5046640;28;20523;-46
2022/04/01 11:20:10;;;;;;;1.30;0.60;;;21.00;91.70;;;;;;5049175;28;20037;-47
2022/04/01 11:22:39;;;;;;;0.63;0.50;;;21.00;91.60;;;;;;5011447;28;20048;-46
2022/04/01 11:25:12;;;;;;;8.23;4.45;;;20.80;92.20;;;;;;5049167;28;20029;-46
2022/04/01 11:27:56;;;;;;;2.97;1.95;;;20.70;92.40;;;;;;5049254;28;20159;-46
2022/04/01 11:30:25;;;;;;;1.52;0.60;;;20.50;92.10;;;;;;5049416;28;20037;-48
2022/04/01 11:33:12;;;;;;;2.40;0.90;;;20.60;93.00;;;;;;5049651;28;20063;-46
2022/04/01 11:35:44;;;;;;;1.92;1.00;;;20.50;92.50;;;;;;5048960;28;20064;-47
2022/04/01 11:38:14;;;;;;;2.38;0.80;;;20.50;92.80;;;;;;5049139;28;20193;-46
2022/04/01 11:40:41;;;;;;;0.98;0.65;;;20.70;92.70;;;;;;5046160;28;20029;-47
2022/04/01 11:43:12;;;;;;;2.30;0.93;;;20.60;92.40;;;;;;5046458;28;20167;-46
2022/04/01 11:46:02;;;;;;;1.90;0.80;;;20.70;93.40;;;;;;5049190;28;20036;-47
2022/04/01 11:48:41;;;;;;;1.27;0.70;;;20.90;91.30;;;;;;5063499;28;20036;-47
2022/04/01 11:51:19;;;;;;;2.85;0.90;;;20.70;92.00;;;;;;5060430;28;20366;-46
2022/04/01 11:53:49;;;;;;;1.25;0.90;;;20.80;91.20;;;;;;5052768;28;20090;-47
2022/04/01 11:56:20;;;;;;;1.58;0.70;;;20.80;91.40;;;;;;5066299;28;20040;-46
2022/04/01 11:58:53;;;;;;;1.05;0.70;;;20.60;91.20;;;;;;5069584;28;20037;-47
2022/04/01 12:01:21;;;;;;;3.13;0.73;;;20.50;91.50;;;;;;5067075;28;20365;-46
2022/04/01 12:03:47;;;;;;;3.97;1.17;;;20.50;91.00;;;;;;5082055;28;20044;-48
2022/04/01 12:09:05;;;;;;;6.97;1.17;;;20.20;91.40;;;;;;5069791;28;20124;-46
2022/04/01 12:11:40;;;;;;;8.02;3.15;;;20.30;92.00;;;;;;5069376;28;20029;-46
2022/04/01 12:14:05;;;;;;;3.38;1.10;;;20.30;92.40;;;;;;5066204;28;20796;-46
2022/04/01 12:16:31;;;;;;;6.97;1.20;;;20.30;92.00;;;;;;5057506;28;20061;-47
2022/04/01 12:18:57;;;;;;;6.97;1.20;;;20.30;92.30;;;;;;5069700;28;20362;-46
2022/04/01 12:21:24;;;;;;;6.25;1.13;;;20.30;92.20;;;;;;5068375;28;20120;-46
2022/04/01 12:23:51;;;;;;;5.35;1.00;;;20.30;92.70;;;;;;5058914;28;20115;-47
2022/04/01 12:26:25;;;;;;;6.13;1.98;;;20.30;92.90;;;;;;5066053;28;20037;-47
2022/04/01 12:28:51;;;;;;;2.28;0.85;;;20.30;92.70;;;;;;5062350;28;20032;-46
2022/04/01 12:31:27;;;;;;;3.05;1.05;;;20.40;91.40;;;;;;5058765;28;20033;-47
2022/04/01 12:33:55;;;;;;;6.40;1.50;;;20.40;91.90;;;;;;5065572;28;20047;-47
2022/04/01 12:36:33;;;;;;;8.32;1.50;;;20.40;92.00;;;;;;5083641;28;20044;-47
2022/04/01 12:39:12;;;;;;;13.15;3.05;;;20.40;91.50;;;;;;5065878;28;20041;-46
2022/04/01 12:41:54;;;;;;;1.55;0.93;;;20.50;92.40;;;;;;5069321;28;20024;-47
2022/04/01 12:44:24;;;;;;;;;;;20.60;91.90;;;;;;5068944;28;20524;-47
2022/04/01 12:46:50;;;;;;;8.50;3.03;;;20.70;91.80;;;;;;5072240;28;19909;-47
2022/04/01 12:49:27;;;;;;;4.55;2.20;;;21.10;91.50;;;;;;5065604;28;20041;-46
2022/04/01 12:52:03;;;;;;;8.30;1.98;;;21.10;91.70;;;;;;5069647;28;20035;-47
2022/04/01 12:54:32;;;;;;;12.90;3.58;;;21.10;90.90;;;;;;5081799;28;20032;-47
2022/04/01 12:57:10;;;;;;;7.47;2.17;;;21.50;91.00;;;;;;5068710;28;20029;-48
2022/04/01 12:59:38;;;;;;;1.08;0.65;;;21.60;88.70;;;;;;5067058;28;20112;-48
2022/04/01 13:02:14;;;;;;;2.42;1.40;;;21.40;90.10;;;;;;5066810;28;20035;-47
2022/04/01 13:04:49;;;;;;;1.02;0.50;;;21.30;90.40;;;;;;5066641;28;20040;-47
2022/04/01 13:07:32;;;;;;;2.58;1.25;;;21.10;90.10;;;;;;5077534;28;20036;-47
2022/04/01 13:10:09;;;;;;;2.83;1.08;;;20.80;89.70;;;;;;5070363;28;20032;-45
2022/04/01 13:12:35;;;;;;;3.33;0.95;;;20.80;91.30;;;;;;5065243;28;20040;-46
2022/04/01 13:15:05;;;;;;;0.65;0.40;;;20.70;91.00;;;;;;5065604;28;20093;-50
2022/04/01 13:17:43;;;;;;;7.60;5.93;;;20.70;90.30;;;;;;5066738;28;20056;-44
2022/04/01 13:20:11;;;;;;;7.88;2.83;;;21.00;91.40;;;;;;5057004;28;20112;-45
2022/04/01 13:22:39;;;;;;;2.58;1.30;;;21.20;90.60;;;;;;5066407;28;20113;-44
2022/04/01 13:25:05;;;;;;;1.17;0.80;;;21.30;90.60;;;;;;5074444;28;20491;-45